Flight Track Log - Related Links

Times and Time Zones

All times are in EST time to prevent confusion due to time zone crossing. See the UCA3597 flight status page for this flight to view local times or setup timezone preferences in your user account.

Time Position Orientation Groundspeed Altitude Reporting Facility
EST Latitude Longitude Course Direction KTS MPH feet Rate Location/Type
Tue 06:16:00 PM 39.5771 -77.1858 19° North  Level Estimated
Tue 06:17:00 PM 39.6400 -77.1581 19° North  Level Estimated
Tue 06:18:00 PM 39.7030 -77.1303 19° North  Level Estimated
Tue 06:19:00 PM 39.7659 -77.1025 19° North  Level Estimated
Tue 06:20:00 PM 39.8288 -77.0747 19° North  Level Estimated
Tue 06:21:00 PM 39.8917 -77.0468 19° North  Level Estimated
Tue 06:22:00 PM 39.9546 -77.0188 19° North  Level Estimated
Tue 06:23:00 PM 40.0175 -76.9908 19° North  Level Estimated
Tue 06:24:00 PM 40.0804 -76.9628 19° North  Level Estimated
Tue 06:25:00 PM 40.1433 -76.9347 19° North  Level Estimated
Tue 06:26:00 PM 40.2061 -76.9065 19° North  Level Estimated
Tue 06:27:00 PM 40.2690 -76.8783 19° North  Level Estimated
Tue 06:28:00 PM 40.3318 -76.8501 19° North  Level Estimated
Tue 06:29:00 PM 40.3947 -76.8218 19° North  Level Estimated
Tue 06:30:00 PM 40.4575 -76.7934 19° North  Level Estimated
Tue 06:31:00 PM 40.5204 -76.7650 19° North  Level Estimated
Tue 06:32:00 PM 40.5832 -76.7365 19° North  Level Estimated
Tue 06:33:00 PM 40.6460 -76.7080 19° North  Level Estimated
Tue 06:34:00 PM 40.7089 -76.6794 19° North  Level Estimated
Tue 06:35:00 PM 40.7717 -76.6508 19° North  Level Estimated
Tue 06:36:00 PM 40.8345 -76.6221 19° North  Level Estimated
Tue 06:37:00 PM 40.8973 -76.5934 19° North  Level Estimated
Tue 06:38:00 PM 40.9600 -76.5646 19° North  Level Estimated
Tue 06:39:00 PM 41.0228 -76.5357 19° North  Level Estimated
Tue 06:40:00 PM 41.0856 -76.5068 19° North  Level Estimated
Tue 06:41:00 PM 41.1484 -76.4778 19° North  Level Estimated
Tue 06:42:00 PM 41.2111 -76.4488 19° North  Level Estimated
Tue 06:43:00 PM 41.2739 -76.4197 19° North  Level Estimated
Tue 06:44:00 PM 41.3366 -76.3906 19° North  Level Estimated
Tue 06:45:00 PM 41.3993 -76.3614 19° North  Level Estimated
Tue 06:46:00 PM 41.4621 -76.3322 19° North  Level Estimated
Tue 06:47:00 PM 41.5248 -76.3029 19° North  Level Estimated
Tue 06:48:00 PM 41.5875 -76.2735 19° North  Level Estimated
Tue 06:49:00 PM 41.6502 -76.2441 19° North  Level Estimated
Tue 06:50:00 PM 41.7129 -76.2147 19° North  Level Estimated
Tue 06:51:00 PM 41.7756 -76.1851 19° North  Level Estimated
Tue 06:52:00 PM 41.8383 -76.1556 19° North  Level Estimated
Tue 06:53:00 PM 41.9010 -76.1259 19° North  Level Estimated
Tue 06:54:00 PM 41.9636 -76.0962 19° North  Level Estimated
Tue 06:55:00 PM 42.0263 -76.0665 19° North  Level Estimated
Tue 06:56:00 PM 42.0890 -76.0366 19° North  Level Estimated
Tue 06:57:00 PM 42.1516 -76.0068 19° North  Level Estimated
Tue 06:58:00 PM 42.2084 -75.9796 19° North  Level Estimated
Tue 06:59:00 PM 42.2084 -75.9796 35° Northeast  Level Estimated
Tue 07:00:00 PM 42.2084 -75.9796 35° Northeast  Level Estimated
Tue 07:01:00 PM 42.2084 -75.9796 35° Northeast  Level Estimated
Tue 07:02:00 PM 42.2084 -75.9796 35° Northeast  Level Estimated
Tue 07:03:00 PM 42.2084 -75.9796 35° Northeast  Level Estimated
Tue 07:04:00 PM 42.2084 -75.9796 35° Northeast  Level Estimated
Tue 07:05:00 PM 42.2084 -75.9796 35° Northeast  Level Estimated
Tue 07:06:00 PM 42.2084 -75.9796 35° Northeast  Level Estimated
Tue 07:07:00 PM 42.2084 -75.9796 35° Northeast  Level Estimated
Tue 07:08:00 PM 42.2084 -75.9796 35° Northeast  Level Estimated
Tue 07:09:00 PM 42.2084 -75.9796 35° Northeast  Level Estimated
Tue 07:10:00 PM 42.2084 -75.9796 35° Northeast  Level Estimated
Tue 07:11:00 PM 42.2084 -75.9796 35° Northeast  Level Estimated
Tue 07:12:00 PM 42.2084 -75.9796 35° Northeast  Level Estimated
Tue 07:13:00 PM 42.2084 -75.9796 35° Northeast  Level Estimated
Tue 07:14:00 PM 42.2084 -75.9796 35° Northeast  Level Estimated

Login

Don't have an account? Register now (free) for customized features, flight alerts, and more!